Time;durP1;ratioP1;P1;durP2;ratioP2;P2;SDS_P1;SDS_P2;PMS_P1;PMS_P2;Temp;Humidity;BMP_temperature;BMP_pressure;BME280_temperature;BME280_humidity;BME280_pressure;Samples;Min_cycle;Max_cycle;Signal;HPM_P1;HPM_P2
2021/12/11 00:01:46;;;;;;;21.33;11.35;;;0.40;99.90;;;;;;5092892;28;20130;-64
2021/12/11 00:04:33;;;;;;;18.17;10.85;;;0.40;99.90;;;;;;5093342;28;20035;-64
2021/12/11 00:07:02;;;;;;;19.88;10.27;;;0.40;99.90;;;;;;5093284;28;20036;-64
2021/12/11 00:09:47;;;;;;;16.15;9.68;;;0.40;99.90;;;;;;5093214;28;20023;-64
2021/12/11 00:12:19;;;;;;;17.70;11.25;;;0.40;99.90;;;;;;5092927;28;20028;-64
2021/12/11 00:14:53;;;;;;;18.35;11.23;;;0.40;99.90;;;;;;5092980;28;20040;-64
2021/12/11 00:17:27;;;;;;;17.30;11.43;;;0.40;99.90;;;;;;5092490;28;20020;-64
2021/12/11 00:19:53;;;;;;;19.88;12.10;;;0.30;99.90;;;;;;5092638;28;20090;-65
2021/12/11 00:22:24;;;;;;;23.60;12.27;;;0.30;99.90;;;;;;5091506;28;20028;-64
2021/12/11 00:24:51;;;;;;;19.27;11.88;;;0.30;99.90;;;;;;5092882;28;20030;-64
2021/12/11 00:27:26;;;;;;;20.45;12.13;;;0.30;99.90;;;;;;5092439;28;20622;-64
2021/12/11 00:29:52;;;;;;;21.02;12.32;;;0.30;99.90;;;;;;5092317;28;20070;-64
2021/12/11 00:32:23;;;;;;;18.95;12.15;;;0.30;99.90;;;;;;5092784;28;20031;-64
2021/12/11 00:34:51;;;;;;;21.40;12.25;;;0.30;99.90;;;;;;5092294;28;20095;-64
2021/12/11 00:37:20;;;;;;;21.85;12.48;;;0.30;99.90;;;;;;5092624;28;20395;-64
2021/12/11 00:39:56;;;;;;;17.48;11.10;;;0.30;99.90;;;;;;5092586;28;20020;-64
2021/12/11 00:42:31;;;;;;;17.30;11.02;;;0.30;99.90;;;;;;5092364;28;20479;-64
2021/12/11 00:44:59;;;;;;;17.52;11.50;;;0.20;99.90;;;;;;5092594;28;20061;-64
2021/12/11 00:47:27;;;;;;;17.65;11.45;;;0.20;99.90;;;;;;5092617;28;20438;-64
2021/12/11 00:50:05;;;;;;;21.42;13.02;;;0.20;99.90;;;;;;5092177;28;20103;-64
2021/12/11 00:52:39;;;;;;;20.40;12.82;;;0.30;99.90;;;;;;5092304;28;20499;-64
2021/12/11 00:55:27;;;;;;;17.30;11.55;;;0.30;99.90;;;;;;5092291;28;20031;-64
2021/12/11 00:58:24;;;;;;;19.60;12.68;;;0.30;99.90;;;;;;5091774;28;20036;-64
2021/12/11 01:01:08;;;;;;;21.70;13.45;;;0.30;99.90;;;;;;5091893;28;20032;-65
2021/12/11 01:03:54;;;;;;;18.58;12.45;;;0.30;99.90;;;;;;5092226;28;20042;-65
2021/12/11 01:06:22;;;;;;;20.63;13.18;;;0.30;99.90;;;;;;5092316;28;20082;-64
2021/12/11 01:09:06;;;;;;;24.42;13.32;;;0.30;99.90;;;;;;5092202;28;20024;-64
2021/12/11 01:11:41;;;;;;;22.48;14.25;;;0.30;99.90;;;;;;5091918;28;20549;-64
2021/12/11 01:17:45;;;;;;;18.67;12.13;;;0.30;99.90;;;;;;5046842;28;20027;-64
2021/12/11 01:20:33;;;;;;;24.58;12.88;;;0.30;99.90;;;;;;5092195;28;20406;-64
2021/12/11 01:22:59;;;;;;;18.55;12.85;;;0.30;99.90;;;;;;5091838;28;20524;-64
2021/12/11 01:25:27;;;;;;;17.10;10.90;;;0.30;99.90;;;;;;5091793;28;20476;-63
2021/12/11 01:27:58;;;;;;;22.23;12.50;;;0.30;99.90;;;;;;5092464;28;20040;-63
2021/12/11 01:30:31;;;;;;;19.63;12.82;;;0.30;99.90;;;;;;5096039;28;20476;-64
2021/12/11 01:32:58;;;;;;;21.58;13.18;;;0.30;99.90;;;;;;5095862;28;20597;-64
2021/12/11 01:35:24;;;;;;;24.25;14.13;;;0.30;99.90;;;;;;5095815;28;20113;-64
2021/12/11 01:38:09;;;;;;;21.70;14.27;;;0.30;99.90;;;;;;5095637;28;20074;-63
2021/12/11 01:40:36;;;;;;;22.95;13.20;;;0.30;99.90;;;;;;5096092;28;20474;-63
2021/12/11 01:43:04;;;;;;;22.00;12.65;;;0.30;99.90;;;;;;5095612;28;20030;-63
2021/12/11 01:45:32;;;;;;;19.70;11.52;;;0.30;99.90;;;;;;5095991;28;20073;-63
2021/12/11 01:47:58;;;;;;;18.45;11.75;;;0.30;99.90;;;;;;5095507;28;20380;-63
2021/12/11 01:50:32;;;;;;;19.48;11.10;;;0.30;99.90;;;;;;5095673;28;20030;-63
2021/12/11 01:53:08;;;;;;;17.52;11.27;;;0.30;99.90;;;;;;5095528;28;20533;-63
2021/12/11 01:55:42;;;;;;;19.35;11.25;;;0.30;99.90;;;;;;5095475;28;20036;-63
2021/12/11 01:58:11;;;;;;;19.02;11.98;;;0.30;99.90;;;;;;5095571;28;20482;-63
2021/12/11 02:00:45;;;;;;;17.50;11.70;;;0.30;99.90;;;;;;5095357;28;20124;-63
2021/12/11 02:03:16;;;;;;;22.33;12.45;;;0.30;99.90;;;;;;5095508;28;20044;-63
2021/12/11 02:05:42;;;;;;;19.58;11.63;;;0.30;99.90;;;;;;5095173;28;20123;-63
2021/12/11 02:08:15;;;;;;;16.92;10.35;;;0.30;99.90;;;;;;5095337;28;20427;-63
2021/12/11 02:11:20;;;;;;;16.50;10.85;;;0.30;99.90;;;;;;5095416;28;20051;-63
2021/12/11 02:13:53;;;;;;;18.10;10.23;;;0.30;99.90;;;;;;5093074;28;20101;-63
2021/12/11 02:16:18;;;;;;;16.15;10.48;;;0.30;99.90;;;;;;5095360;28;20139;-63
2021/12/11 02:18:47;;;;;;;17.48;11.00;;;0.40;99.90;;;;;;5095058;28;20056;-63
2021/12/11 02:21:23;;;;;;;18.05;11.10;;;0.30;99.90;;;;;;5095174;28;20028;-63
2021/12/11 02:24:06;;;;;;;17.05;10.05;;;0.30;99.90;;;;;;5094968;28;20498;-63
2021/12/11 02:55:54;;;;;;;16.40;8.30;;;0.40;99.90;;;;;;5094132;28;20373;-63
2021/12/11 02:58:29;;;;;;;11.65;6.45;;;0.40;99.90;;;;;;5094396;28;20089;-63
2021/12/11 03:01:23;;;;;;;13.32;7.50;;;0.40;99.90;;;;;;5094132;28;20040;-63
2021/12/11 03:03:58;;;;;;;13.45;8.20;;;0.40;99.90;;;;;;5094512;28;20031;-63
2021/12/11 03:06:28;;;;;;;13.57;8.50;;;0.40;99.90;;;;;;5094155;28;20157;-63
2021/12/11 03:08:58;;;;;;;14.80;8.35;;;0.40;99.90;;;;;;5094074;28;20016;-63
2021/12/11 03:11:28;;;;;;;14.00;8.07;;;0.50;99.90;;;;;;5094661;28;20028;-63
2021/12/11 03:13:55;;;;;;;11.50;7.88;;;0.40;99.90;;;;;;5094117;28;20044;-63
2021/12/11 03:16:25;;;;;;;15.05;9.05;;;0.40;99.90;;;;;;5093958;28;20031;-63
2021/12/11 03:18:52;;;;;;;15.98;9.75;;;0.50;99.90;;;;;;5093938;28;20028;-63
2021/12/11 03:21:18;;;;;;;14.63;9.65;;;0.40;99.90;;;;;;5093904;28;20024;-63
2021/12/11 03:23:45;;;;;;;17.38;9.60;;;0.40;99.90;;;;;;5093686;28;20069;-63
2021/12/11 03:26:11;;;;;;;19.38;10.57;;;0.40;99.90;;;;;;5094044;28;20059;-63
2021/12/11 03:28:38;;;;;;;20.95;10.85;;;0.40;99.90;;;;;;5093725;28;20020;-63
2021/12/11 03:31:06;;;;;;;16.55;10.60;;;0.40;99.90;;;;;;5093739;28;20387;-63
2021/12/11 03:33:38;;;;;;;17.00;10.38;;;0.40;99.90;;;;;;5093565;28;20028;-63
2021/12/11 03:36:07;;;;;;;15.88;10.60;;;0.40;99.90;;;;;;5093726;28;20553;-63
2021/12/11 03:38:34;;;;;;;16.25;9.50;;;0.40;99.90;;;;;;5093541;28;20089;-63
2021/12/11 03:41:01;;;;;;;17.05;10.35;;;0.40;99.90;;;;;;5093645;28;20026;-62
2021/12/11 03:43:28;;;;;;;15.52;10.15;;;0.40;99.90;;;;;;5093646;28;20504;-63
2021/12/11 03:45:57;;;;;;;15.18;9.45;;;0.40;99.90;;;;;;5093390;28;20032;-62
2021/12/11 03:48:30;;;;;;;14.07;9.23;;;0.40;99.90;;;;;;5093457;28;20588;-63
2021/12/11 03:51:01;;;;;;;15.48;9.60;;;0.40;99.90;;;;;;5092716;28;20110;-62
2021/12/11 03:53:27;;;;;;;15.63;10.40;;;0.40;99.90;;;;;;5093266;28;20417;-63
2021/12/11 03:55:57;;;;;;;19.50;10.38;;;0.40;99.90;;;;;;5093099;28;20103;-63
2021/12/11 03:58:25;;;;;;;18.50;10.68;;;0.40;99.90;;;;;;5092889;28;20036;-63
2021/12/11 04:00:53;;;;;;;15.73;10.15;;;0.40;99.90;;;;;;5092694;28;20052;-63
2021/12/11 04:03:22;;;;;;;18.33;11.75;;;0.40;99.90;;;;;;5093393;28;20093;-63
2021/12/11 04:05:49;;;;;;;18.88;10.85;;;0.40;99.90;;;;;;5093038;28;20030;-63
2021/12/11 04:08:21;;;;;;;19.27;11.13;;;0.40;99.90;;;;;;5093050;28;20486;-63
2021/12/11 04:10:48;;;;;;;17.75;10.40;;;0.40;99.90;;;;;;5092995;28;20639;-63
2021/12/11 04:13:14;;;;;;;18.45;11.35;;;0.40;99.90;;;;;;5093096;28;20024;-63
2021/12/11 04:15:42;;;;;;;16.52;10.52;;;0.40;99.90;;;;;;5092840;28;20107;-63
2021/12/11 04:18:09;;;;;;;18.25;11.48;;;0.40;99.90;;;;;;5092714;28;20060;-63
2021/12/11 04:20:37;;;;;;;18.52;11.52;;;0.40;99.90;;;;;;5092579;28;20024;-63
2021/12/11 04:23:04;;;;;;;18.98;11.07;;;0.40;99.90;;;;;;5092775;28;20028;-63
2021/12/11 04:25:31;;;;;;;18.25;11.95;;;0.40;99.90;;;;;;5092716;28;20016;-63
2021/12/11 04:27:58;;;;;;;17.30;10.77;;;0.40;99.90;;;;;;5092512;28;20027;-63
2021/12/11 04:30:25;;;;;;;17.38;11.27;;;0.40;99.90;;;;;;5092874;28;20062;-63
2021/12/11 04:32:52;;;;;;;17.77;11.18;;;0.40;99.90;;;;;;5092366;28;20028;-62
2021/12/11 04:35:20;;;;;;;17.27;11.02;;;0.40;99.90;;;;;;5092697;28;20086;-63
2021/12/11 04:37:46;;;;;;;17.83;11.35;;;0.40;99.90;;;;;;5092227;28;20024;-63
2021/12/11 04:40:17;;;;;;;19.58;11.63;;;0.40;99.90;;;;;;5092504;28;20026;-64
2021/12/11 04:45:21;;;;;;;20.30;11.20;;;0.40;99.90;;;;;;5092713;28;20035;-63
2021/12/11 04:48:14;;;;;;;17.35;11.35;;;0.40;99.90;;;;;;5092471;28;20124;-64
2021/12/11 04:50:47;;;;;;;19.02;11.15;;;0.40;99.90;;;;;;5091859;28;20537;-63
2021/12/11 05:04:28;;;;;;;16.60;10.60;;;0.40;99.90;;;;;;5091234;28;20032;-63
2021/12/11 05:07:16;;;;;;;15.88;10.48;;;0.40;99.90;;;;;;5091929;28;20082;-62
2021/12/11 05:10:15;;;;;;;17.83;10.32;;;0.40;99.90;;;;;;5092346;28;20055;-63
2021/12/11 05:12:43;;;;;;;17.85;10.60;;;0.30;99.90;;;;;;5092235;28;20036;-63
2021/12/11 05:15:14;;;;;;;15.93;9.95;;;0.30;99.90;;;;;;5092040;28;20444;-62
2021/12/11 05:17:41;;;;;;;18.48;11.00;;;0.30;99.90;;;;;;5092121;28;20024;-63
2021/12/11 05:20:09;;;;;;;18.83;10.68;;;0.30;99.90;;;;;;5092215;28;20032;-62
2021/12/11 05:22:37;;;;;;;15.02;10.10;;;0.30;99.90;;;;;;5091851;28;20028;-62
2021/12/11 05:25:06;;;;;;;17.85;10.57;;;0.30;99.90;;;;;;5091929;28;20021;-62
2021/12/11 05:27:33;;;;;;;14.27;9.52;;;0.30;99.90;;;;;;5091878;28;20024;-62
2021/12/11 05:30:00;;;;;;;15.68;9.93;;;0.30;99.90;;;;;;5091699;28;20024;-62
2021/12/11 05:32:27;;;;;;;16.00;9.50;;;0.30;99.90;;;;;;5091682;28;20111;-62
2021/12/11 05:34:53;;;;;;;19.05;10.43;;;0.30;99.90;;;;;;5091557;28;20032;-62
2021/12/11 05:37:20;;;;;;;14.73;9.70;;;0.30;99.90;;;;;;5091967;28;20031;-62
2021/12/11 05:39:46;;;;;;;2.95;2.45;;;0.40;99.90;;;;;;5091543;28;20032;-63
2021/12/11 05:42:13;;;;;;;14.63;9.02;;;2.00;99.90;;;;;;5091441;28;20028;-62
2021/12/11 05:44:40;;;;;;;13.63;9.15;;;3.30;99.90;;;;;;5094241;28;20032;-63
2021/12/11 05:47:06;;;;;;;10.43;6.63;;;3.00;99.90;;;;;;5094098;28;20032;-62
2021/12/11 05:49:33;;;;;;;10.60;6.47;;;2.60;99.90;;;;;;5094157;28;20480;-62
2021/12/11 05:52:01;;;;;;;10.38;6.32;;;2.20;99.90;;;;;;5093820;28;20016;-62
2021/12/11 05:54:28;;;;;;;9.45;5.75;;;1.90;99.90;;;;;;5091050;28;20391;-62
2021/12/11 05:57:01;;;;;;;10.23;6.43;;;1.60;99.90;;;;;;5093931;28;20028;-62
2021/12/11 05:59:28;;;;;;;8.88;5.53;;;1.40;99.90;;;;;;5092838;28;20024;-62
2021/12/11 06:02:04;;;;;;;8.07;5.55;;;1.20;99.90;;;;;;5090855;28;20036;-62
2021/12/11 06:04:34;;;;;;;10.98;7.03;;;1.10;99.90;;;;;;5091200;28;20020;-62
2021/12/11 06:07:02;;;;;;;10.45;6.57;;;1.10;99.90;;;;;;5092912;28;20028;-62
2021/12/11 06:09:29;;;;;;;10.38;6.47;;;1.00;99.90;;;;;;5090981;28;20032;-62
2021/12/11 06:12:01;;;;;;;9.65;6.43;;;1.00;99.90;;;;;;5091297;28;20016;-62
2021/12/11 06:14:27;;;;;;;9.10;6.25;;;1.00;99.90;;;;;;5104108;28;20509;-62
2021/12/11 06:16:56;;;;;;;10.52;6.47;;;1.00;99.90;;;;;;5101123;28;20036;-62
2021/12/11 06:19:22;;;;;;;10.88;7.28;;;1.00;99.90;;;;;;5100447;28;20047;-62
2021/12/11 06:21:50;;;;;;;11.70;7.40;;;1.00;99.90;;;;;;5110621;28;20024;-62
2021/12/11 06:24:18;;;;;;;10.20;7.07;;;1.00;99.90;;;;;;5115012;28;20444;-62
2021/12/11 06:26:44;;;;;;;11.82;7.30;;;0.90;99.90;;;;;;5115576;28;20023;-62
2021/12/11 06:29:10;;;;;;;11.50;7.47;;;0.90;99.90;;;;;;5102952;28;20093;-63
2021/12/11 06:31:36;;;;;;;13.43;8.63;;;1.00;99.90;;;;;;5095011;28;20051;-62
2021/12/11 06:34:02;;;;;;;13.25;7.38;;;1.00;99.90;;;;;;5095067;28;20476;-62
2021/12/11 06:36:28;;;;;;;12.27;7.60;;;1.10;99.90;;;;;;5095039;28;20031;-63
2021/12/11 06:39:00;;;;;;;12.63;7.00;;;1.20;99.90;;;;;;5093477;28;20024;-62
2021/12/11 06:41:31;;;;;;;10.13;6.43;;;1.20;99.90;;;;;;5094709;28;20020;-62
2021/12/11 06:43:57;;;;;;;10.45;6.63;;;1.10;99.90;;;;;;5094916;28;20157;-62
2021/12/11 06:46:23;;;;;;;10.75;6.70;;;1.10;99.90;;;;;;5094629;28;20028;-62
2021/12/11 06:48:49;;;;;;;13.23;7.55;;;1.00;99.90;;;;;;5094473;28;20468;-62
2021/12/11 06:51:15;;;;;;;12.48;6.93;;;1.00;99.90;;;;;;5094559;28;20024;-62
2021/12/11 06:53:46;;;;;;;9.40;5.95;;;1.00;99.90;;;;;;5094619;28;20024;-64
2021/12/11 06:56:13;;;;;;;;;;;1.30;99.90;;;;;;5094927;28;20545;-62
2021/12/11 06:58:39;;;;;;;11.07;6.07;;;1.90;99.90;;;;;;5094323;28;20352;-62
2021/12/11 07:01:07;;;;;;;11.25;6.57;;;1.90;99.90;;;;;;5094234;28;20048;-62
2021/12/11 07:03:33;;;;;;;9.88;6.57;;;1.60;99.90;;;;;;5094320;28;20054;-62
2021/12/11 07:05:59;;;;;;;11.00;7.15;;;1.50;99.90;;;;;;5094225;28;20017;-62
2021/12/11 07:08:27;;;;;;;11.43;7.50;;;1.40;99.90;;;;;;5094040;28;20166;-62
2021/12/11 07:10:53;;;;;;;13.02;7.60;;;1.40;99.90;;;;;;5092890;28;20047;-63
2021/12/11 07:13:19;;;;;;;15.35;8.85;;;1.40;99.90;;;;;;5093862;28;20389;-62
2021/12/11 07:15:45;;;;;;;14.65;8.80;;;1.40;99.90;;;;;;5093621;28;20024;-62
2021/12/11 07:18:11;;;;;;;13.88;9.27;;;1.30;99.90;;;;;;5093445;28;20020;-62
2021/12/11 07:20:37;;;;;;;17.90;8.35;;;1.20;99.90;;;;;;5096337;28;20024;-62
2021/12/11 07:23:04;;;;;;;11.52;7.78;;;1.20;99.90;;;;;;5093650;28;20036;-62
2021/12/11 07:25:48;;;;;;;13.38;8.43;;;1.10;99.90;;;;;;5092931;28;20020;-61
2021/12/11 07:28:15;;;;;;;14.10;8.75;;;1.10;99.90;;;;;;5093393;28;20116;-62
2021/12/11 07:30:44;;;;;;;13.35;8.95;;;1.10;99.90;;;;;;5110810;28;20016;-62
2021/12/11 07:33:11;;;;;;;13.75;8.68;;;1.10;99.90;;;;;;5114361;28;20058;-62
2021/12/11 07:35:39;;;;;;;12.80;7.78;;;1.10;99.90;;;;;;5113984;28;20032;-63
2021/12/11 07:38:06;;;;;;;9.32;6.18;;;1.20;99.90;;;;;;5114038;28;20031;-63
2021/12/11 07:40:48;;;;;;;9.25;6.32;;;2.10;99.90;;;;;;5112153;28;20471;-60
2021/12/11 07:43:16;;;;;;;9.20;6.40;;;2.20;99.90;;;;;;5119697;27;20106;-61
2021/12/11 07:45:43;;;;;;;9.27;6.05;;;2.00;99.90;;;;;;5116496;27;20023;-60
2021/12/11 07:48:08;;;;;;;9.70;6.20;;;1.70;99.90;;;;;;5113511;28;20031;-61
2021/12/11 07:50:35;;;;;;;10.10;6.45;;;1.50;99.90;;;;;;5113969;28;20027;-61
2021/12/11 07:53:02;;;;;;;11.93;7.13;;;1.40;99.90;;;;;;5113800;28;20031;-61
2021/12/11 07:55:28;;;;;;;10.93;6.90;;;1.30;99.90;;;;;;5113960;28;20112;-62
2021/12/11 07:57:54;;;;;;;11.82;7.00;;;1.30;99.90;;;;;;5113200;28;20051;-62
2021/12/11 08:00:23;;;;;;;10.82;7.28;;;1.30;99.90;;;;;;5113337;27;20038;-62
2021/12/11 08:02:49;;;;;;;10.60;6.72;;;1.30;99.90;;;;;;5113013;28;20566;-62
2021/12/11 08:05:15;;;;;;;11.77;6.90;;;1.20;99.90;;;;;;5113381;28;20027;-62
2021/12/11 08:07:42;;;;;;;11.98;7.05;;;1.20;99.90;;;;;;5113225;28;20398;-63
2021/12/11 08:10:14;;;;;;;12.07;6.88;;;1.20;99.90;;;;;;5113303;28;20058;-62
2021/12/11 08:12:41;;;;;;;10.85;6.72;;;1.10;99.90;;;;;;5113232;28;20099;-62
2021/12/11 08:15:09;;;;;;;11.77;5.72;;;1.00;99.90;;;;;;5112950;28;20032;-62
2021/12/11 08:17:35;;;;;;;9.88;6.10;;;1.00;99.90;;;;;;5113334;28;20043;-62
2021/12/11 08:20:01;;;;;;;10.25;6.50;;;1.00;99.90;;;;;;5112907;28;20525;-62
2021/12/11 08:22:27;;;;;;;13.98;6.80;;;0.90;99.90;;;;;;5092718;28;20733;-62
2021/12/11 08:24:53;;;;;;;11.40;6.85;;;1.00;99.90;;;;;;5092732;28;20024;-62
2021/12/11 08:27:21;;;;;;;10.13;6.60;;;1.00;99.90;;;;;;5094043;28;20028;-62
2021/12/11 08:29:49;;;;;;;12.13;6.53;;;0.90;99.90;;;;;;5092627;28;20182;-62
2021/12/11 08:32:19;;;;;;;10.77;6.57;;;0.90;99.90;;;;;;5092735;28;20032;-63
2021/12/11 08:34:45;;;;;;;13.70;6.60;;;0.90;99.90;;;;;;5092075;28;20082;-63
2021/12/11 08:37:13;;;;;;;15.10;7.15;;;0.90;99.90;;;;;;5093270;28;20020;-63
2021/12/11 08:39:39;;;;;;;11.27;6.63;;;0.90;99.90;;;;;;5095388;28;20479;-63
2021/12/11 08:42:09;;;;;;;9.00;5.90;;;0.90;99.90;;;;;;5094554;28;20054;-63
2021/12/11 08:44:37;;;;;;;9.98;6.18;;;0.90;99.90;;;;;;5092251;28;20028;-63
2021/12/11 08:47:08;;;;;;;9.57;6.38;;;0.80;99.90;;;;;;5094610;28;20088;-63
2021/12/11 08:49:38;;;;;;;8.05;4.30;;;0.80;99.90;;;;;;5092236;28;20507;-64
2021/12/11 08:52:10;;;;;;;5.63;2.17;;;1.40;99.90;;;;;;5092189;28;20035;-65
2021/12/11 08:54:37;;;;;;;9.23;5.97;;;4.10;99.90;;;;;;5094831;28;20065;-64
2021/12/11 08:57:06;;;;;;;8.75;2.60;;;6.80;99.90;;;;;;5092038;28;20028;-64
2021/12/11 08:59:34;;;;;;;4.90;3.22;;;6.60;99.90;;;;;;5092034;28;20103;-64
2021/12/11 09:02:18;;;;;;;7.55;4.50;;;7.90;99.90;;;;;;5091857;28;20051;-64
2021/12/11 09:04:53;;;;;;;9.35;2.85;;;7.30;99.90;;;;;;5092361;28;20024;-64
2021/12/11 09:07:49;;;;;;;8.68;5.07;;;6.80;99.90;;;;;;5092027;28;20017;-64
2021/12/11 09:10:39;;;;;;;7.88;4.80;;;6.80;99.90;;;;;;5090854;28;20602;-64
2021/12/11 09:13:13;;;;;;;9.17;5.90;;;5.60;99.90;;;;;;5092001;28;20016;-64
2021/12/11 09:15:45;;;;;;;9.95;5.43;;;4.60;99.90;;;;;;5091905;28;20033;-64
2021/12/11 09:18:26;;;;;;;8.57;5.60;;;4.10;99.90;;;;;;5091946;28;20050;-64
2021/12/11 09:20:54;;;;;;;;;;;3.70;99.90;;;;;;5092337;28;20054;-64
2021/12/11 09:23:25;;;;;;;8.45;5.40;;;3.40;99.90;;;;;;5092275;28;19904;-64
2021/12/11 09:26:00;;;;;;;8.55;5.45;;;3.20;99.90;;;;;;5091874;28;20516;-64
2021/12/11 09:28:32;;;;;;;8.48;6.00;;;2.90;99.90;;;;;;5094281;28;20019;-64
2021/12/11 09:31:08;;;;;;;11.80;7.28;;;2.70;99.90;;;;;;5091754;28;20016;-62
2021/12/11 09:33:40;;;;;;;12.93;7.43;;;2.60;99.90;;;;;;5091415;28;20024;-62
2021/12/11 09:36:15;;;;;;;10.07;6.78;;;2.50;99.90;;;;;;5091515;28;20039;-62
2021/12/11 09:38:45;;;;;;;11.25;6.70;;;2.40;99.90;;;;;;5091293;28;20024;-62
2021/12/11 09:41:24;;;;;;;;;;;2.40;99.90;;;;;;5104509;28;20028;-62
2021/12/11 09:44:17;;;;;;;11.07;6.70;;;2.30;99.90;;;;;;5108260;28;19988;-62
2021/12/11 09:46:56;;;;;;;10.75;6.85;;;2.10;99.90;;;;;;5099507;28;20028;-62
2021/12/11 09:49:28;;;;;;;10.82;7.32;;;2.00;99.90;;;;;;5092330;28;20012;-62
2021/12/11 09:52:02;;;;;;;11.15;7.55;;;1.80;99.90;;;;;;5095177;28;20411;-62
2021/12/11 09:54:30;;;;;;;12.80;7.53;;;1.80;99.90;;;;;;5113216;28;20027;-62
2021/12/11 09:57:07;;;;;;;11.65;7.25;;;1.80;99.90;;;;;;5113595;28;20043;-62
2021/12/11 09:59:36;;;;;;;11.35;6.88;;;1.70;99.90;;;;;;5114927;28;20077;-62
2021/12/11 10:02:17;;;;;;;11.00;7.43;;;1.80;99.90;;;;;;5106460;28;20047;-61
2021/12/11 10:04:52;;;;;;;12.77;7.43;;;1.70;99.90;;;;;;5098702;28;20420;-62
2021/12/11 10:09:55;;;;;;;11.38;7.55;;;1.60;99.90;;;;;;5095526;28;20541;-62
2021/12/11 10:12:30;;;;;;;16.85;7.90;;;1.50;99.90;;;;;;5095414;28;20435;-62
2021/12/11 10:15:11;;;;;;;16.05;8.30;;;1.50;99.90;;;;;;5095002;28;20044;-62
2021/12/11 10:17:43;;;;;;;12.95;8.13;;;1.40;99.90;;;;;;5095109;28;20042;-62
2021/12/11 10:20:18;;;;;;;16.58;8.82;;;1.30;99.90;;;;;;5095177;28;20372;-62
2021/12/11 10:22:47;;;;;;;13.35;8.40;;;1.20;99.90;;;;;;5095306;28;20024;-63
2021/12/11 10:25:18;;;;;;;13.95;7.90;;;1.30;99.90;;;;;;5095227;28;20039;-64
2021/12/11 10:27:45;;;;;;;13.40;7.95;;;1.40;99.90;;;;;;5095072;28;20032;-62
2021/12/11 10:30:18;;;;;;;11.43;7.28;;;1.90;99.90;;;;;;5094818;28;20060;-62
2021/12/11 10:32:44;;;;;;;10.68;6.32;;;2.00;99.90;;;;;;5094982;28;20024;-62
2021/12/11 10:35:17;;;;;;;10.75;6.13;;;3.50;99.90;;;;;;5094609;28;20028;-63
2021/12/11 10:37:44;;;;;;;10.77;6.68;;;4.00;99.90;;;;;;5095047;28;20021;-63
2021/12/11 10:40:24;;;;;;;10.43;6.78;;;3.30;99.90;;;;;;5094640;28;20395;-63
2021/12/11 10:42:56;;;;;;;11.48;7.40;;;2.70;99.90;;;;;;5094911;28;20027;-63
2021/12/11 10:45:24;;;;;;;9.82;6.45;;;2.40;99.90;;;;;;5094979;28;20031;-62
2021/12/11 10:47:55;;;;;;;8.25;5.72;;;2.20;99.90;;;;;;5094393;28;20032;-62
2021/12/11 10:50:30;;;;;;;9.80;5.32;;;2.20;99.90;;;;;;5094365;28;20048;-62
2021/12/11 10:52:57;;;;;;;8.90;5.85;;;2.10;99.90;;;;;;5097065;28;20031;-62
2021/12/11 10:55:28;;;;;;;7.32;4.68;;;1.80;99.90;;;;;;5094516;28;20063;-62
2021/12/11 10:57:56;;;;;;;7.43;4.28;;;3.10;99.90;;;;;;5094233;28;20027;-63
2021/12/11 11:00:33;;;;;;;7.25;4.60;;;3.40;99.90;;;;;;5093717;28;20103;-61
2021/12/11 11:02:59;;;;;;;8.35;4.97;;;5.60;99.90;;;;;;5096525;28;20030;-62
2021/12/11 11:05:28;;;;;;;8.52;5.28;;;4.80;99.90;;;;;;5093873;28;20106;-61
2021/12/11 11:07:54;;;;;;;7.78;4.75;;;3.80;99.90;;;;;;5093688;28;20476;-63
2021/12/11 11:10:29;;;;;;;9.48;5.40;;;3.20;99.90;;;;;;5094229;28;20437;-62
2021/12/11 11:12:57;;;;;;;8.30;5.72;;;2.60;99.90;;;;;;5093930;28;20070;-61
2021/12/11 11:15:24;;;;;;;7.82;5.53;;;2.30;99.90;;;;;;5093729;28;20032;-61
2021/12/11 11:17:50;;;;;;;8.93;5.80;;;2.10;99.90;;;;;;5096918;28;20020;-61
2021/12/11 11:20:22;;;;;;;7.03;5.22;;;1.90;99.90;;;;;;5113565;28;20027;-61
2021/12/11 11:22:49;;;;;;;9.02;4.97;;;1.80;99.90;;;;;;5114341;28;20475;-61
2021/12/11 11:25:21;;;;;;;8.48;5.70;;;1.80;99.90;;;;;;5114063;28;20088;-61
2021/12/11 11:27:52;;;;;;;9.32;5.78;;;1.80;99.90;;;;;;5114250;28;20479;-61
2021/12/11 11:30:25;;;;;;;7.30;5.50;;;1.70;99.90;;;;;;5127347;27;20031;-62
2021/12/11 11:32:51;;;;;;;9.02;6.13;;;1.60;99.90;;;;;;5113788;27;20021;-61
2021/12/11 11:35:21;;;;;;;8.55;5.90;;;1.50;99.90;;;;;;5093519;28;20043;-61
2021/12/11 11:37:50;;;;;;;10.07;6.13;;;1.60;99.90;;;;;;5093071;28;20394;-61
2021/12/11 11:40:21;;;;;;;9.70;6.55;;;1.60;99.90;;;;;;5094089;28;20039;-61
2021/12/11 11:42:47;;;;;;;13.10;6.43;;;1.60;99.90;;;;;;5093117;28;20537;-62
2021/12/11 11:45:13;;;;;;;8.95;6.18;;;1.50;99.90;;;;;;5093226;28;20024;-62
2021/12/11 11:47:41;;;;;;;9.95;5.72;;;1.60;99.90;;;;;;5093704;28;20043;-61
2021/12/11 11:50:11;;;;;;;8.88;5.68;;;2.20;99.90;;;;;;5093394;28;20024;-61
2021/12/11 11:52:38;;;;;;;10.98;5.95;;;2.10;99.90;;;;;;5093271;28;20032;-61
2021/12/11 11:55:12;;;;;;;8.57;5.22;;;1.90;99.90;;;;;;5093205;28;20479;-62
2021/12/11 11:57:41;;;;;;;8.88;5.90;;;1.80;99.90;;;;;;5093322;28;20027;-61
2021/12/11 12:00:17;;;;;;;7.55;5.63;;;1.70;99.90;;;;;;5093062;28;20051;-61
2021/12/11 12:02:43;;;;;;;12.60;6.57;;;1.60;99.90;;;;;;5093324;28;20376;-61
2021/12/11 12:05:09;;;;;;;8.75;5.43;;;1.60;99.90;;;;;;5093144;28;20035;-61
2021/12/11 12:07:35;;;;;;;8.40;5.40;;;1.60;99.90;;;;;;5093179;28;20502;-61
2021/12/11 12:10:11;;;;;;;9.15;5.03;;;1.60;99.90;;;;;;5093097;28;20055;-62
2021/12/11 12:12:38;;;;;;;8.35;5.18;;;1.50;99.90;;;;;;5092559;28;20020;-62
2021/12/11 12:15:07;;;;;;;8.73;5.15;;;1.40;99.90;;;;;;5092911;28;20591;-62
2021/12/11 12:17:33;;;;;;;7.28;4.93;;;1.40;99.90;;;;;;5092871;28;20016;-61
2021/12/11 12:20:00;;;;;;;8.75;5.10;;;1.40;99.90;;;;;;5092776;28;20034;-62
2021/12/11 12:22:28;;;;;;;7.30;4.88;;;1.40;99.90;;;;;;5092848;28;20030;-61
2021/12/11 12:24:55;;;;;;;7.22;4.97;;;1.30;99.90;;;;;;5092779;28;20110;-62
2021/12/11 12:27:27;;;;;;;9.15;5.72;;;1.20;99.90;;;;;;5091664;28;20024;-62
2021/12/11 12:29:54;;;;;;;9.82;5.53;;;1.10;99.90;;;;;;5092632;28;20081;-61
2021/12/11 12:32:24;;;;;;;10.27;5.57;;;0.90;99.90;;;;;;5092616;28;20082;-62
2021/12/11 12:34:53;;;;;;;6.75;5.00;;;0.80;99.90;;;;;;5092597;28;20032;-61
2021/12/11 12:37:19;;;;;;;7.40;4.95;;;1.20;99.90;;;;;;5092346;28;20028;-62
2021/12/11 12:39:49;;;;;;;8.85;5.57;;;1.50;99.90;;;;;;5092664;28;20028;-62
2021/12/11 12:42:31;;;;;;;9.45;5.93;;;1.40;99.90;;;;;;5092365;28;20020;-62
2021/12/11 12:45:08;;;;;;;7.00;5.57;;;1.30;99.90;;;;;;5092280;28;20035;-62
2021/12/11 12:47:39;;;;;;;7.57;5.20;;;1.20;99.90;;;;;;5092711;28;20027;-62
2021/12/11 12:50:12;;;;;;;7.15;5.63;;;1.20;99.90;;;;;;5092467;28;20161;-62
2021/12/11 12:52:42;;;;;;;9.25;5.35;;;1.20;99.90;;;;;;5092216;28;20028;-62
2021/12/11 12:55:22;;;;;;;9.07;5.03;;;1.20;99.90;;;;;;5092037;28;20032;-62
2021/12/11 12:57:51;;;;;;;8.52;4.85;;;1.30;99.90;;;;;;5092194;28;20098;-61
2021/12/11 13:00:26;;;;;;;7.75;5.18;;;1.20;99.90;;;;;;5091925;28;20040;-62
2021/12/11 13:02:55;;;;;;;10.02;5.82;;;1.20;99.90;;;;;;5092096;28;20027;-61
2021/12/11 13:05:24;;;;;;;8.02;5.55;;;1.10;99.90;;;;;;5092021;28;20020;-62
2021/12/11 13:07:52;;;;;;;7.85;5.43;;;1.10;99.90;;;;;;5092115;28;20023;-62
2021/12/11 13:10:24;;;;;;;8.85;5.47;;;1.00;99.90;;;;;;5092031;28;20146;-62
2021/12/11 13:12:51;;;;;;;11.05;5.63;;;1.00;99.90;;;;;;5091223;28;20031;-63
2021/12/11 13:15:32;;;;;;;9.95;6.38;;;1.00;99.90;;;;;;5091984;28;20118;-63
2021/12/11 13:18:01;;;;;;;10.73;5.82;;;1.60;99.90;;;;;;5091964;28;20376;-62
2021/12/11 13:20:55;;;;;;;9.57;5.70;;;1.60;99.90;;;;;;5092008;28;20103;-62
2021/12/11 13:23:21;;;;;;;10.13;5.95;;;1.40;99.90;;;;;;5089108;28;20043;-62
2021/12/11 13:25:56;;;;;;;9.80;5.50;;;1.30;99.90;;;;;;5091941;28;20020;-62
2021/12/11 13:28:25;;;;;;;7.57;5.43;;;1.20;99.90;;;;;;5091570;28;20760;-62
2021/12/11 13:30:56;;;;;;;8.82;5.10;;;1.10;99.90;;;;;;5097429;28;20023;-62
2021/12/11 13:33:25;;;;;;;10.10;5.47;;;1.00;99.90;;;;;;5101059;28;20051;-62
2021/12/11 13:35:55;;;;;;;9.52;5.75;;;1.00;99.90;;;;;;5101148;28;20036;-62
2021/12/11 13:38:24;;;;;;;10.57;5.63;;;1.00;99.90;;;;;;5100761;28;20018;-62
2021/12/11 13:40:56;;;;;;;11.55;7.40;;;1.00;99.90;;;;;;5103146;28;20035;-62
2021/12/11 13:43:22;;;;;;;11.52;7.22;;;0.90;99.90;;;;;;5109931;28;20035;-62
2021/12/11 13:45:51;;;;;;;11.70;7.70;;;0.90;99.90;;;;;;5091500;28;20024;-62
2021/12/11 13:48:20;;;;;;;11.50;6.45;;;0.90;99.90;;;;;;5091993;28;20024;-62
2021/12/11 13:51:02;;;;;;;13.15;7.70;;;0.80;99.90;;;;;;5109809;28;20487;-62
2021/12/11 13:53:29;;;;;;;10.93;6.78;;;0.80;99.90;;;;;;5102006;28;20024;-62
2021/12/11 13:55:56;;;;;;;11.80;7.07;;;0.80;99.90;;;;;;5097173;28;20119;-62